createdAt,value
2019-02-16T00:00:12.183Z,101762.70
2019-02-16T00:02:41.099Z,101762.87
2019-02-16T00:05:10.131Z,101769.56
2019-02-16T00:07:39.068Z,101767.55
2019-02-16T00:10:08.089Z,101767.64
2019-02-16T00:12:37.057Z,101770.37
2019-02-16T00:15:06.296Z,101765.67
2019-02-16T00:17:35.204Z,101764.12
2019-02-16T00:20:04.334Z,101765.37
2019-02-16T00:22:33.266Z,101767.83
2019-02-16T00:25:02.346Z,101767.83
2019-02-16T00:27:31.265Z,101773.66
2019-02-16T00:30:00.359Z,101774.98
2019-02-16T00:32:29.235Z,101770.09
2019-02-16T00:34:58.078Z,101771.18
2019-02-16T00:37:27.110Z,101769.73
2019-02-16T00:39:56.132Z,101768.81
2019-02-16T00:42:25.227Z,101769.50
2019-02-16T00:44:54.123Z,101762.78
2019-02-16T00:47:22.935Z,101760.56
2019-02-16T00:49:51.851Z,101767.87
2019-02-16T00:52:20.879Z,101767.70
2019-02-16T00:54:49.787Z,101766.08
2019-02-16T00:57:18.821Z,101763.36
2019-02-16T00:59:47.755Z,101761.83
2019-02-16T01:02:16.684Z,101758.25
2019-02-16T01:04:45.657Z,101754.77
2019-02-16T01:07:14.457Z,101765.52
2019-02-16T01:09:43.421Z,101760.50
2019-02-16T01:12:12.420Z,101759.70
2019-02-16T01:14:41.368Z,101759.74
2019-02-16T01:17:10.363Z,101761.51
2019-02-16T01:19:39.352Z,101766.13
2019-02-16T01:22:08.287Z,101763.38
2019-02-16T01:24:37.304Z,101761.27
2019-02-16T01:27:06.287Z,101762.47
2019-02-16T01:29:35.228Z,101763.26
2019-02-16T01:32:04.127Z,101757.55
2019-02-16T01:34:33.095Z,101756.39
2019-02-16T01:37:01.925Z,101750.09
2019-02-16T01:39:30.946Z,101751.83
2019-02-16T01:41:59.916Z,101759.62
2019-02-16T01:44:28.842Z,101764.03
2019-02-16T01:46:57.654Z,101754.84
2019-02-16T01:49:26.683Z,101753.20
2019-02-16T01:51:55.551Z,101756.94
2019-02-16T01:54:24.377Z,101754.11
2019-02-16T01:56:53.216Z,101756.24
2019-02-16T01:59:22.122Z,101745.17
2019-02-16T02:01:51.020Z,101750.66
2019-02-16T02:04:19.909Z,101743.44
2019-02-16T02:06:48.809Z,101745.00
2019-02-16T02:09:17.725Z,101740.63
2019-02-16T02:11:46.642Z,101747.60
2019-02-16T02:14:15.548Z,101744.96
2019-02-16T02:16:44.422Z,101742.86
2019-02-16T02:19:13.305Z,101739.45
2019-02-16T02:21:42.371Z,101742.00
2019-02-16T02:24:12.976Z,101736.03
2019-02-16T02:26:41.793Z,101734.16
2019-02-16T02:29:10.748Z,101736.52
2019-02-16T02:31:39.649Z,101731.23
2019-02-16T02:34:08.649Z,101729.61
2019-02-16T02:36:37.570Z,101723.42
2019-02-16T02:39:07.038Z,101733.17
2019-02-16T02:41:36.104Z,101737.03
2019-02-16T02:44:05.063Z,101736.17
2019-02-16T02:46:33.979Z,101734.67
2019-02-16T02:49:04.105Z,101734.02
2019-02-16T02:51:32.952Z,101737.43
2019-02-16T02:54:01.834Z,101730.13
2019-02-16T02:56:30.845Z,101730.50
2019-02-16T02:58:59.702Z,101729.48
2019-02-16T03:01:28.728Z,101731.64
2019-02-16T03:03:57.612Z,101726.72
2019-02-16T03:06:26.507Z,101728.95
2019-02-16T03:08:55.411Z,101726.98
2019-02-16T03:11:24.360Z,101726.03
2019-02-16T03:13:53.167Z,101722.73
2019-02-16T03:16:22.332Z,101719.80
2019-02-16T03:18:51.279Z,101728.30
2019-02-16T03:21:20.115Z,101733.76
2019-02-16T03:23:49.075Z,101733.36
2019-02-16T03:26:57.630Z,101728.70
2019-02-16T03:29:57.431Z,101733.78
2019-02-16T03:33:12.577Z,101734.63
2019-02-16T03:36:30.286Z,101740.20
2019-02-16T03:39:15.051Z,101741.41
2019-02-16T03:41:43.967Z,101747.13
2019-02-16T03:44:16.152Z,101748.27
2019-02-16T03:46:45.149Z,101744.12
2019-02-16T03:49:14.113Z,101742.55
2019-02-16T03:51:42.892Z,101747.56
2019-02-16T03:54:11.830Z,101751.25
2019-02-16T03:56:40.806Z,101755.14
2019-02-16T03:59:09.651Z,101758.89
2019-02-16T04:01:38.648Z,101764.36
2019-02-16T04:04:07.669Z,101763.64
2019-02-16T04:06:36.446Z,101746.90
2019-02-16T04:09:06.675Z,101742.77
2019-02-16T04:11:35.695Z,101741.83
2019-02-16T04:14:04.661Z,101732.12
2019-02-16T04:16:33.576Z,101724.08
2019-02-16T04:19:02.355Z,101722.47
2019-02-16T04:21:31.323Z,101727.09
2019-02-16T04:24:00.240Z,101729.19
2019-02-16T04:26:29.252Z,101722.80
2019-02-16T04:28:58.222Z,101729.00
2019-02-16T04:31:27.207Z,101739.48
2019-02-16T04:33:56.041Z,101731.75
2019-02-16T04:36:24.998Z,101732.16
2019-02-16T04:38:53.929Z,101736.19
2019-02-16T04:41:23.068Z,101732.95
2019-02-16T04:43:51.939Z,101736.84
2019-02-16T04:46:20.830Z,101736.84
2019-02-16T04:48:49.677Z,101742.56
2019-02-16T04:51:18.550Z,101746.55
2019-02-16T04:53:47.530Z,101747.34
2019-02-16T04:56:16.665Z,101740.56
2019-02-16T04:58:45.493Z,101746.42
2019-02-16T05:01:14.464Z,101733.28
2019-02-16T05:03:43.352Z,101727.84
2019-02-16T05:06:12.306Z,101728.14
2019-02-16T05:08:41.316Z,101728.46
2019-02-16T05:11:10.294Z,101732.20
2019-02-16T05:13:39.186Z,101726.73
2019-02-16T05:16:08.175Z,101720.38
2019-02-16T05:18:36.986Z,101722.81
2019-02-16T05:21:05.876Z,101728.08
2019-02-16T05:23:34.792Z,101729.78
2019-02-16T05:26:03.783Z,101736.04
2019-02-16T05:28:32.737Z,101724.51
2019-02-16T05:31:01.645Z,101721.70
2019-02-16T05:33:30.574Z,101715.70
2019-02-16T05:35:59.575Z,101721.53
2019-02-16T05:38:28.363Z,101724.53
2019-02-16T05:40:57.270Z,101722.47
2019-02-16T05:43:26.080Z,101711.47
2019-02-16T05:45:55.013Z,101709.31
2019-02-16T05:48:23.942Z,101714.38
2019-02-16T05:50:52.877Z,101710.33
2019-02-16T05:53:21.680Z,101716.84
2019-02-16T05:55:50.590Z,101717.95
2019-02-16T05:58:19.452Z,101718.89
2019-02-16T06:00:48.411Z,101725.64
2019-02-16T06:03:17.364Z,101725.20
2019-02-16T06:05:46.270Z,101728.86
2019-02-16T06:08:15.329Z,101734.53
2019-02-16T06:10:44.275Z,101732.44
2019-02-16T06:13:13.347Z,101727.95
2019-02-16T06:15:42.337Z,101736.97
2019-02-16T06:18:11.262Z,101743.28
2019-02-16T06:20:40.051Z,101746.77
2019-02-16T06:23:08.960Z,101748.24
2019-02-16T06:25:37.977Z,101752.19
2019-02-16T06:28:06.929Z,101756.31
2019-02-16T06:30:35.839Z,101753.05
2019-02-16T06:33:04.783Z,101757.55
2019-02-16T06:35:38.171Z,101757.45
2019-02-16T06:38:07.096Z,101752.39
2019-02-16T06:40:36.009Z,101751.28
2019-02-16T06:43:04.987Z,101765.00
2019-02-16T06:45:33.955Z,101764.62
2019-02-16T06:48:02.964Z,101762.56
2019-02-16T06:50:36.921Z,101765.77
2019-02-16T06:53:02.624Z,101764.36
2019-02-16T06:55:39.752Z,101767.62
2019-02-16T06:58:09.557Z,101764.83
2019-02-16T07:00:38.394Z,101758.13
2019-02-16T07:03:10.265Z,101765.95
2019-02-16T07:05:39.198Z,101769.33
2019-02-16T07:08:08.257Z,101771.42
2019-02-16T07:10:37.218Z,101768.95
2019-02-16T07:13:06.419Z,101775.91
2019-02-16T07:15:35.305Z,101782.33
2019-02-16T07:18:13.923Z,101786.28
2019-02-16T07:20:42.935Z,101781.74
2019-02-16T07:23:12.170Z,101781.20
2019-02-16T07:25:40.974Z,101777.14
2019-02-16T07:28:09.944Z,101774.98
2019-02-16T07:30:38.873Z,101783.14
2019-02-16T07:33:07.828Z,101782.41
2019-02-16T07:35:36.895Z,101790.95
2019-02-16T07:38:05.896Z,101791.34
2019-02-16T07:40:34.859Z,101791.02
2019-02-16T07:43:04.034Z,101795.64
2019-02-16T07:46:10.385Z,101799.11
2019-02-16T07:48:56.805Z,101800.28
2019-02-16T07:51:56.532Z,101801.66
2019-02-16T07:54:30.736Z,101797.69
2019-02-16T07:57:07.212Z,101804.38
2019-02-16T07:59:43.682Z,101808.64
2019-02-16T08:02:31.608Z,101799.73
2019-02-16T08:05:19.521Z,101792.43
2019-02-16T08:08:02.874Z,101797.67
2019-02-16T08:10:57.809Z,101803.61
2019-02-16T08:13:40.991Z,101798.61
2019-02-16T08:16:35.271Z,101804.17
2019-02-16T08:19:23.266Z,101806.39
2019-02-16T08:21:59.051Z,101808.33
2019-02-16T08:24:45.736Z,101809.11
2019-02-16T08:27:45.996Z,101806.53
2019-02-16T08:30:49.317Z,101806.22
2019-02-16T08:33:35.921Z,101800.36
2019-02-16T08:36:20.763Z,101799.48
2019-02-16T08:39:12.312Z,101794.70
2019-02-16T08:42:06.481Z,101788.94
2019-02-16T08:45:02.859Z,101791.27
2019-02-16T08:47:41.115Z,101794.34
2019-02-16T08:50:34.908Z,101799.53
2019-02-16T08:53:19.467Z,101798.73
2019-02-16T08:55:54.718Z,101796.21
2019-02-16T08:58:57.904Z,101784.34
2019-02-16T09:01:34.526Z,101786.52
2019-02-16T09:04:22.563Z,101786.69
2019-02-16T09:07:09.382Z,101779.94
2019-02-16T09:09:56.012Z,101781.79
2019-02-16T09:12:44.007Z,101784.92
2019-02-16T09:15:42.097Z,101779.02
2019-02-16T09:18:32.208Z,101770.52
2019-02-16T09:21:15.119Z,101770.05
2019-02-16T09:23:59.045Z,101765.58
2019-02-16T09:26:45.340Z,101771.39
2019-02-16T09:29:28.752Z,101768.40
2019-02-16T09:32:19.671Z,101765.77
2019-02-16T09:34:57.101Z,101759.17
2019-02-16T09:37:43.716Z,101764.98
2019-02-16T09:40:44.148Z,101766.14
2019-02-16T09:43:30.985Z,101769.92
2019-02-16T09:46:18.796Z,101772.41
2019-02-16T09:48:58.816Z,101775.38
2019-02-16T09:51:38.473Z,101761.91
2019-02-16T09:54:20.915Z,101762.75
2019-02-16T09:56:54.846Z,101767.25
2019-02-16T09:59:45.761Z,101766.71
2019-02-16T10:02:29.736Z,101768.89
2019-02-16T10:05:18.225Z,101763.62
2019-02-16T10:08:07.653Z,101773.03
2019-02-16T10:10:54.252Z,101774.91
2019-02-16T10:13:29.600Z,101766.75
2019-02-16T10:16:25.674Z,101763.20
2019-02-16T10:19:29.236Z,101768.58
2019-02-16T10:22:20.357Z,101772.19
2019-02-16T10:25:07.516Z,101765.45
2019-02-16T10:27:53.944Z,101765.09
2019-02-16T10:30:40.538Z,101765.84
2019-02-16T10:33:28.444Z,101765.60
2019-02-16T10:36:16.403Z,101762.52
2019-02-16T10:39:08.303Z,101763.28
2019-02-16T10:41:59.203Z,101760.81
2019-02-16T10:44:40.648Z,101759.69
2019-02-16T10:47:23.817Z,101755.39
2019-02-16T10:50:12.857Z,101754.39
2019-02-16T10:53:06.559Z,101753.23
2019-02-16T10:56:00.298Z,101755.52
2019-02-16T10:58:40.943Z,101749.56
2019-02-16T11:01:34.633Z,101746.67
2019-02-16T11:04:13.033Z,101749.84
2019-02-16T11:07:01.036Z,101738.97
2019-02-16T11:09:41.643Z,101740.25
2019-02-16T11:12:38.967Z,101741.33
2019-02-16T11:15:33.141Z,101737.76
2019-02-16T11:18:26.232Z,101733.06
2019-02-16T11:21:06.912Z,101737.53
2019-02-16T11:23:58.196Z,101737.99
2019-02-16T11:26:38.291Z,101726.73
2019-02-16T11:29:25.077Z,101728.64
2019-02-16T11:32:11.899Z,101722.01
2019-02-16T11:34:49.593Z,101719.27
2019-02-16T11:37:37.401Z,101718.99
2019-02-16T11:40:18.611Z,101716.73
2019-02-16T11:43:06.232Z,101706.80
2019-02-16T11:45:53.097Z,101714.95
2019-02-16T11:48:29.598Z,101708.48
2019-02-16T11:51:36.028Z,101703.63
2019-02-16T11:54:21.157Z,101701.45
2019-02-16T11:57:02.615Z,101698.19
2019-02-16T11:59:50.615Z,101701.54
2019-02-16T12:02:40.016Z,101700.03
2019-02-16T12:05:31.248Z,101692.84
2019-02-16T12:08:14.527Z,101680.98
2019-02-16T12:11:11.605Z,101685.54
2019-02-16T12:13:55.938Z,101681.23
2019-02-16T12:16:43.885Z,101674.88
2019-02-16T12:19:29.198Z,101673.20
2019-02-16T12:22:16.121Z,101667.86
2019-02-16T12:25:08.558Z,101668.88
2019-02-16T12:27:56.485Z,101662.48
2019-02-16T12:30:36.229Z,101662.52
2019-02-16T12:33:30.368Z,101657.83
2019-02-16T12:36:18.269Z,101657.48
2019-02-16T12:39:08.932Z,101649.45
2019-02-16T12:41:56.876Z,101657.27
2019-02-16T12:44:45.386Z,101651.05
2019-02-16T12:47:32.088Z,101641.00
2019-02-16T12:50:08.935Z,101630.23
2019-02-16T12:53:00.263Z,101633.93
2019-02-16T12:55:50.941Z,101630.44
2019-02-16T12:58:34.448Z,101621.20
2019-02-16T13:01:20.187Z,101622.79
2019-02-16T13:04:14.159Z,101616.77
2019-02-16T13:07:08.180Z,101614.13
2019-02-16T13:09:55.136Z,101605.89
2019-02-16T13:12:30.671Z,101610.42
2019-02-16T13:15:19.242Z,101610.56
2019-02-16T13:18:06.076Z,101617.28
2019-02-16T13:20:44.884Z,101611.03
2019-02-16T13:23:44.952Z,101612.78
2019-02-16T13:26:20.156Z,101598.12
2019-02-16T13:29:06.906Z,101601.92
2019-02-16T13:31:43.994Z,101607.09
2019-02-16T13:34:17.044Z,101607.93
2019-02-16T13:36:57.297Z,101601.80
2019-02-16T13:39:37.324Z,101600.32
2019-02-16T13:42:12.203Z,101601.64
2019-02-16T13:44:58.355Z,101594.27
2019-02-16T13:47:45.903Z,101598.96
2019-02-16T13:50:37.000Z,101596.94
2019-02-16T13:53:23.703Z,101599.34
2019-02-16T13:56:07.644Z,101596.03
2019-02-16T13:58:53.564Z,101589.68
2019-02-16T14:01:41.600Z,101594.09
2019-02-16T14:04:35.569Z,101583.55
2019-02-16T14:07:16.374Z,101573.77
2019-02-16T14:10:22.618Z,101578.06
2019-02-16T14:13:11.140Z,101580.37
2019-02-16T14:15:58.456Z,101577.66
2019-02-16T14:18:27.478Z,101573.95
2019-02-16T14:20:56.473Z,101573.47
2019-02-16T14:23:25.482Z,101570.55
2019-02-16T14:25:54.477Z,101567.54
2019-02-16T14:28:23.406Z,101567.86
2019-02-16T14:30:52.354Z,101564.70
2019-02-16T14:33:21.279Z,101569.09
2019-02-16T14:35:50.954Z,101568.45
2019-02-16T14:38:37.327Z,101567.03
2019-02-16T14:41:06.231Z,101568.27
2019-02-16T14:43:35.153Z,101567.66
2019-02-16T14:46:04.217Z,101566.64
2019-02-16T14:48:32.986Z,101565.05
2019-02-16T14:51:01.925Z,101560.14
2019-02-16T14:53:30.893Z,101559.02
2019-02-16T14:55:59.777Z,101555.72
2019-02-16T14:58:28.666Z,101555.72
2019-02-16T15:00:57.691Z,101553.81
2019-02-16T15:03:26.601Z,101550.83
2019-02-16T15:05:55.494Z,101558.03
2019-02-16T15:08:24.534Z,101556.41
2019-02-16T15:10:53.378Z,101552.17
2019-02-16T15:13:22.275Z,101556.09
2019-02-16T15:15:51.103Z,101546.63
2019-02-16T15:18:20.059Z,101552.14
2019-02-16T15:20:48.900Z,101552.13
2019-02-16T15:23:17.746Z,101549.36
2019-02-16T15:25:46.643Z,101547.77
2019-02-16T15:28:15.607Z,101545.80
2019-02-16T15:30:44.467Z,101539.20
2019-02-16T15:33:13.365Z,101533.53
2019-02-16T15:35:42.367Z,101548.99
2019-02-16T15:38:11.185Z,101548.42
2019-02-16T15:40:40.089Z,101540.41
2019-02-16T15:43:08.948Z,101539.78
2019-02-16T15:45:37.892Z,101540.84
2019-02-16T15:48:06.923Z,101538.87
2019-02-16T15:50:35.953Z,101530.55
2019-02-16T15:53:04.852Z,101531.13
2019-02-16T15:55:33.745Z,101532.73
2019-02-16T15:58:02.701Z,101528.09
2019-02-16T16:00:31.758Z,101528.23
2019-02-16T16:03:00.798Z,101528.81
2019-02-16T16:05:29.686Z,101530.91
2019-02-16T16:08:17.213Z,101530.69
2019-02-16T16:11:26.332Z,101526.45
2019-02-16T16:14:23.152Z,101521.88
2019-02-16T16:17:09.997Z,101525.14
2019-02-16T16:20:03.421Z,101520.18
2019-02-16T16:22:57.373Z,101519.86
2019-02-16T16:25:51.483Z,101524.36
2019-02-16T16:28:42.506Z,101529.92
2019-02-16T16:31:31.249Z,101528.13
2019-02-16T16:34:11.794Z,101525.98
2019-02-16T16:36:50.831Z,101525.00
2019-02-16T16:39:44.923Z,101520.79
2019-02-16T16:42:24.464Z,101529.11
2019-02-16T16:45:04.730Z,101522.23
2019-02-16T16:47:59.037Z,101521.72
2019-02-16T16:50:49.992Z,101521.91
2019-02-16T16:53:38.684Z,101518.58
2019-02-16T16:56:28.606Z,101521.94
2019-02-16T16:59:24.415Z,101530.39
2019-02-16T17:02:02.766Z,101528.64
2019-02-16T17:04:53.881Z,101532.53
2019-02-16T17:07:29.338Z,101529.17
2019-02-16T17:10:23.197Z,101532.52
2019-02-16T17:13:01.422Z,101536.82
2019-02-16T17:15:52.536Z,101542.15
2019-02-16T17:18:28.294Z,101545.64
2019-02-16T17:21:15.096Z,101541.38
2019-02-16T17:23:59.759Z,101531.98
2019-02-16T17:27:05.934Z,101542.13
2019-02-16T17:29:52.467Z,101542.34
2019-02-16T17:32:58.936Z,101537.69
2019-02-16T17:35:49.446Z,101541.98
2019-02-16T17:38:36.123Z,101537.50
2019-02-16T17:41:22.892Z,101534.16
2019-02-16T17:44:14.735Z,101534.16
2019-02-16T17:47:01.788Z,101538.77
2019-02-16T17:49:49.711Z,101534.42
2019-02-16T17:52:36.359Z,101534.34
2019-02-16T17:55:33.373Z,101539.50
2019-02-16T17:58:24.273Z,101541.96
2019-02-16T18:01:12.903Z,101539.84
2019-02-16T18:04:09.586Z,101538.91
2019-02-16T18:06:57.702Z,101541.49
2019-02-16T18:09:44.539Z,101546.03
2019-02-16T18:12:19.768Z,101544.15
2019-02-16T18:14:58.780Z,101539.61
2019-02-16T18:17:46.652Z,101545.39
2019-02-16T18:20:24.610Z,101544.02
2019-02-16T18:23:16.531Z,101542.59
2019-02-16T18:25:53.967Z,101537.63
2019-02-16T18:28:34.937Z,101535.95
2019-02-16T18:31:22.858Z,101536.72
2019-02-16T18:34:13.131Z,101534.23
2019-02-16T18:36:59.389Z,101535.48
2019-02-16T18:39:46.256Z,101534.64
2019-02-16T18:42:32.821Z,101529.52
2019-02-16T18:45:19.835Z,101522.17
2019-02-16T18:48:06.739Z,101520.73
2019-02-16T18:50:50.126Z,101515.46
2019-02-16T18:53:47.187Z,101512.45
2019-02-16T18:56:47.257Z,101519.23
2019-02-16T18:59:44.403Z,101522.69
2019-02-16T19:02:24.985Z,101517.36
2019-02-16T19:05:01.466Z,101518.91
2019-02-16T19:07:45.223Z,101519.17
2019-02-16T19:10:22.719Z,101520.72
2019-02-16T19:13:19.468Z,101521.93
2019-02-16T19:16:04.519Z,101518.15
2019-02-16T19:18:51.368Z,101516.90
2019-02-16T19:21:34.544Z,101521.30
2019-02-16T19:24:12.970Z,101519.91
2019-02-16T19:26:59.827Z,101518.36
2019-02-16T19:29:46.578Z,101524.94
2019-02-16T19:32:46.475Z,101520.59
2019-02-16T19:35:40.291Z,101518.49
2019-02-16T19:38:20.323Z,101518.66
2019-02-16T19:40:58.662Z,101511.72
2019-02-16T19:43:39.701Z,101508.48
2019-02-16T19:46:19.027Z,101514.53
2019-02-16T19:49:13.312Z,101511.95
2019-02-16T19:51:49.409Z,101512.92
2019-02-16T19:54:46.452Z,101507.52
2019-02-16T19:57:43.462Z,101507.61
2019-02-16T20:00:27.184Z,101506.25
2019-02-16T20:03:14.265Z,101507.17
2019-02-16T20:06:04.970Z,101509.38
2019-02-16T20:08:40.518Z,101503.67
2019-02-16T20:11:27.035Z,101514.89
2019-02-16T20:14:10.218Z,101514.30
2019-02-16T20:17:04.256Z,101505.33
2019-02-16T20:19:49.776Z,101503.72
2019-02-16T20:22:36.277Z,101507.00
2019-02-16T20:25:16.209Z,101505.49
2019-02-16T20:28:06.705Z,101509.55
2019-02-16T20:31:06.819Z,101517.44
2019-02-16T20:33:57.974Z,101511.99
2019-02-16T20:36:32.880Z,101513.48
2019-02-16T20:39:19.646Z,101517.71
2019-02-16T20:41:58.446Z,101518.58
2019-02-16T20:45:01.491Z,101519.80
2019-02-16T20:47:48.167Z,101514.59
2019-02-16T20:50:52.133Z,101517.09
2019-02-16T20:53:30.932Z,101512.56
2019-02-16T20:56:17.901Z,101515.52
2019-02-16T20:58:54.161Z,101510.02
2019-02-16T21:01:54.356Z,101492.14
2019-02-16T21:05:30.640Z,101507.06
2019-02-16T21:08:33.916Z,101509.16
2019-02-16T21:11:28.053Z,101507.25
2019-02-16T21:14:34.640Z,101511.47
2019-02-16T21:17:25.975Z,101507.74
2019-02-16T21:20:03.707Z,101503.22
2019-02-16T21:22:50.404Z,101509.72
2019-02-16T21:25:36.866Z,101509.23
2019-02-16T21:28:24.770Z,101508.05
2019-02-16T21:31:18.295Z,101512.77
2019-02-16T21:33:52.117Z,101506.84
2019-02-16T21:36:42.923Z,101509.86
2019-02-16T21:39:31.312Z,101508.59
2019-02-16T21:42:07.339Z,101501.57
2019-02-16T21:45:07.765Z,101500.44
2019-02-16T21:48:01.678Z,101495.70
2019-02-16T21:50:54.365Z,101493.41
2019-02-16T21:53:45.340Z,101494.86
2019-02-16T21:56:30.069Z,101498.37
2019-02-16T21:59:24.581Z,101499.48
2019-02-16T22:02:08.781Z,101502.17
2019-02-16T22:04:56.682Z,101503.23
2019-02-16T22:07:43.286Z,101504.69
2019-02-16T22:10:31.279Z,101504.34
2019-02-16T22:13:05.372Z,101500.44
2019-02-16T22:15:34.642Z,101499.61
2019-02-16T22:18:03.663Z,101493.61
2019-02-16T22:20:32.557Z,101491.95
2019-02-16T22:23:01.862Z,101492.31
2019-02-16T22:25:30.849Z,101491.11
2019-02-16T22:27:59.789Z,101493.02
2019-02-16T22:30:28.890Z,101495.08
2019-02-16T22:32:58.054Z,101495.78
2019-02-16T22:35:28.729Z,101489.17
2019-02-16T22:37:57.868Z,101500.34
2019-02-16T22:40:26.779Z,101500.45
2019-02-16T22:42:55.714Z,101504.69
2019-02-16T22:45:24.679Z,101505.31
2019-02-16T22:47:53.624Z,101500.38
2019-02-16T22:50:22.513Z,101501.55
2019-02-16T22:52:51.544Z,101492.99
2019-02-16T22:55:20.635Z,101495.06
2019-02-16T22:57:49.625Z,101493.38
2019-02-16T23:00:37.607Z,101495.67
2019-02-16T23:03:08.100Z,101502.40
2019-02-16T23:05:37.012Z,101490.61
2019-02-16T23:08:05.929Z,101491.22
2019-02-16T23:10:34.886Z,101494.96
2019-02-16T23:13:03.889Z,101493.27
2019-02-16T23:15:32.850Z,101491.57
2019-02-16T23:18:01.857Z,101492.06
2019-02-16T23:20:30.884Z,101492.77
2019-02-16T23:22:59.849Z,101486.98
2019-02-16T23:25:28.840Z,101486.48
2019-02-16T23:27:57.695Z,101486.61
2019-02-16T23:30:26.700Z,101475.17
2019-02-16T23:32:57.038Z,101482.35
2019-02-16T23:35:26.194Z,101481.15
2019-02-16T23:37:55.119Z,101473.77
2019-02-16T23:40:23.962Z,101474.03
2019-02-16T23:42:52.950Z,101469.82
2019-02-16T23:45:21.812Z,101473.77
2019-02-16T23:47:50.773Z,101464.22
2019-02-16T23:50:19.641Z,101471.44
2019-02-16T23:52:48.499Z,101463.36
2019-02-16T23:55:17.464Z,101464.80
2019-02-16T23:57:46.399Z,101463.50
